createdAt,value
2023-03-27T00:01:14.919Z,6.68
2023-03-27T00:03:42.732Z,6.59
2023-03-27T00:06:16.806Z,6.51
2023-03-27T00:08:44.638Z,6.42
2023-03-27T00:11:11.780Z,6.37
2023-03-27T00:13:49.551Z,6.29
2023-03-27T00:16:21.887Z,6.21
2023-03-27T00:18:48.714Z,6.13
2023-03-27T00:21:15.255Z,6.03
2023-03-27T00:23:42.349Z,5.98
2023-03-27T00:26:08.941Z,5.92
2023-03-27T00:28:36.343Z,5.85
2023-03-27T00:31:02.968Z,5.79
2023-03-27T00:33:29.443Z,5.74
2023-03-27T00:35:56.073Z,5.66
2023-03-27T00:38:22.856Z,5.60
2023-03-27T00:40:50.877Z,5.56
2023-03-27T00:43:21.116Z,5.50
2023-03-27T00:45:49.071Z,5.47
2023-03-27T00:48:15.873Z,5.43
2023-03-27T00:50:44.285Z,5.43
2023-03-27T00:53:15.983Z,5.38
2023-03-27T00:55:47.112Z,5.34
2023-03-27T00:58:19.731Z,5.30
2023-03-27T01:00:49.415Z,5.29
2023-03-27T01:03:16.359Z,5.26
2023-03-27T01:05:43.385Z,5.24
2023-03-27T01:08:11.615Z,5.20
2023-03-27T01:10:52.983Z,5.17
2023-03-27T01:13:29.594Z,5.13
2023-03-27T01:16:11.781Z,5.08
2023-03-27T01:18:53.405Z,5.02
2023-03-27T01:21:51.928Z,4.98
2023-03-27T01:24:52.311Z,4.95
2023-03-27T01:27:58.482Z,4.89
2023-03-27T01:31:22.095Z,4.85
2023-03-27T01:34:10.259Z,4.86
2023-03-27T01:36:58.956Z,4.84
2023-03-27T01:39:34.634Z,4.83
2023-03-27T01:42:10.478Z,4.82
2023-03-27T01:44:59.893Z,4.80
2023-03-27T01:47:39.464Z,4.79
2023-03-27T01:50:13.653Z,4.78
2023-03-27T01:52:43.102Z,4.78
2023-03-27T01:55:15.856Z,4.78
2023-03-27T01:57:50.155Z,4.74
2023-03-27T02:00:22.331Z,4.73
2023-03-27T02:03:08.364Z,4.69
2023-03-27T02:05:42.465Z,4.70
2023-03-27T02:08:18.844Z,4.69
2023-03-27T02:10:51.715Z,4.66
2023-03-27T02:13:26.165Z,4.66
2023-03-27T02:15:56.517Z,4.66
2023-03-27T02:18:31.458Z,4.65
2023-03-27T02:20:58.099Z,4.62
2023-03-27T02:23:24.589Z,4.64
2023-03-27T02:25:52.005Z,4.65
2023-03-27T02:28:29.280Z,4.65
2023-03-27T02:31:32.935Z,4.66
2023-03-27T02:34:18.416Z,4.65
2023-03-27T02:37:02.171Z,4.69
2023-03-27T02:39:53.918Z,4.64
2023-03-27T02:42:38.028Z,4.64
2023-03-27T02:45:24.000Z,4.61
2023-03-27T02:48:35.600Z,4.55
2023-03-27T02:51:08.821Z,4.55
2023-03-27T02:53:42.881Z,4.51
2023-03-27T02:56:11.932Z,4.45
2023-03-27T02:58:50.349Z,4.38
2023-03-27T03:01:19.693Z,4.32
2023-03-27T03:03:54.962Z,4.29
2023-03-27T03:06:29.598Z,4.24
2023-03-27T03:09:05.976Z,4.22
2023-03-27T03:11:46.202Z,4.19
2023-03-27T03:14:13.301Z,4.18
2023-03-27T03:16:40.286Z,4.19
2023-03-27T03:19:06.735Z,4.20
2023-03-27T03:21:33.126Z,4.18
2023-03-27T03:24:00.086Z,4.13
2023-03-27T03:26:27.146Z,4.14
2023-03-27T03:29:00.449Z,4.14
2023-03-27T03:31:42.911Z,4.15
2023-03-27T03:34:18.297Z,4.13
2023-03-27T03:36:49.059Z,4.13
2023-03-27T03:39:17.338Z,4.17
2023-03-27T03:41:43.821Z,4.17
2023-03-27T03:44:10.515Z,4.16
2023-03-27T03:46:37.161Z,4.15
2023-03-27T03:49:04.886Z,4.10
2023-03-27T03:51:32.055Z,4.07
2023-03-27T03:53:58.547Z,4.00
2023-03-27T03:56:26.128Z,4.00
2023-03-27T03:58:52.599Z,3.95
2023-03-27T04:01:20.587Z,3.87
2023-03-27T04:03:48.218Z,3.85
2023-03-27T04:06:17.565Z,3.81
2023-03-27T04:08:47.759Z,3.77
2023-03-27T04:11:14.223Z,3.73
2023-03-27T04:13:40.687Z,3.69
2023-03-27T04:16:08.128Z,3.71
2023-03-27T04:18:35.322Z,3.70
2023-03-27T04:21:03.026Z,3.70
2023-03-27T04:23:32.171Z,3.71
2023-03-27T04:26:00.206Z,3.72
2023-03-27T04:28:30.258Z,3.70
2023-03-27T04:30:58.290Z,3.69
2023-03-27T04:33:25.845Z,3.70
2023-03-27T04:36:06.031Z,3.68
2023-03-27T04:38:39.149Z,3.67
2023-03-27T04:41:06.106Z,3.66
2023-03-27T04:43:36.520Z,3.61
2023-03-27T04:46:05.871Z,3.59
2023-03-27T04:48:32.748Z,3.59
2023-03-27T04:50:59.365Z,3.60
2023-03-27T04:53:31.097Z,3.58
2023-03-27T04:55:57.673Z,3.59
2023-03-27T04:58:25.766Z,3.59
2023-03-27T05:00:55.655Z,3.58
2023-03-27T05:03:24.011Z,3.57
2023-03-27T05:05:50.601Z,3.55
2023-03-27T05:08:17.657Z,3.53
2023-03-27T05:10:45.206Z,3.51
2023-03-27T05:13:12.268Z,3.48
2023-03-27T05:15:39.026Z,3.42
2023-03-27T05:18:07.245Z,3.39
2023-03-27T05:20:35.019Z,3.34
2023-03-27T05:23:01.506Z,3.33
2023-03-27T05:25:29.146Z,3.30
2023-03-27T05:27:55.611Z,3.27
2023-03-27T05:30:23.941Z,3.27
2023-03-27T05:32:52.086Z,3.27
2023-03-27T05:35:22.353Z,3.25
2023-03-27T05:37:53.474Z,3.24
2023-03-27T05:40:22.641Z,3.22
2023-03-27T05:42:51.166Z,3.20
2023-03-27T05:45:18.400Z,3.18
2023-03-27T05:47:48.367Z,3.16
2023-03-27T05:50:15.899Z,3.16
2023-03-27T05:52:42.764Z,3.12
2023-03-27T05:55:10.382Z,3.12
2023-03-27T05:57:38.692Z,3.11
2023-03-27T06:00:11.892Z,3.09
2023-03-27T06:02:39.174Z,3.08
2023-03-27T06:05:16.536Z,3.08
2023-03-27T06:07:43.851Z,3.07
2023-03-27T06:10:14.098Z,3.08
2023-03-27T06:12:41.843Z,3.09
2023-03-27T06:15:09.993Z,3.11
2023-03-27T06:17:39.489Z,3.14
2023-03-27T06:20:15.036Z,3.16
2023-03-27T06:22:48.070Z,3.22
2023-03-27T06:25:15.948Z,3.25
2023-03-27T06:27:43.390Z,3.33
2023-03-27T06:30:11.270Z,3.43
2023-03-27T06:32:43.541Z,3.54
2023-03-27T06:35:10.222Z,3.63
2023-03-27T06:37:36.898Z,3.73
2023-03-27T06:40:09.357Z,3.83
2023-03-27T06:42:36.994Z,3.92
2023-03-27T06:45:04.839Z,4.04
2023-03-27T06:47:33.161Z,4.17
2023-03-27T06:50:02.913Z,4.29
2023-03-27T06:52:29.457Z,4.40
2023-03-27T06:54:55.891Z,4.53
2023-03-27T06:57:22.332Z,4.61
2023-03-27T06:59:48.875Z,4.75
2023-03-27T07:02:15.331Z,4.90
2023-03-27T07:04:48.255Z,4.99
2023-03-27T07:07:20.896Z,5.12
2023-03-27T07:09:47.606Z,5.27
2023-03-27T07:12:14.036Z,5.38
2023-03-27T07:14:40.670Z,5.43
2023-03-27T07:17:09.209Z,5.45
2023-03-27T07:19:36.213Z,5.50
2023-03-27T07:22:02.656Z,5.42
2023-03-27T07:24:29.073Z,5.40
2023-03-27T07:26:56.329Z,5.50
2023-03-27T07:29:22.799Z,5.53
2023-03-27T07:31:56.633Z,5.56
2023-03-27T07:34:25.482Z,5.60
2023-03-27T07:36:51.931Z,5.63
2023-03-27T07:39:18.322Z,5.66
2023-03-27T07:41:44.758Z,5.63
2023-03-27T07:44:11.194Z,5.59
2023-03-27T07:46:37.681Z,5.58
2023-03-27T07:49:04.832Z,5.58
2023-03-27T07:51:31.317Z,5.60
2023-03-27T07:54:04.000Z,5.56
2023-03-27T07:56:34.007Z,5.59
2023-03-27T07:59:01.547Z,5.57
2023-03-27T08:01:28.092Z,5.49
2023-03-27T08:03:54.763Z,5.55
2023-03-27T08:06:21.424Z,5.52
2023-03-27T08:08:47.875Z,5.51
2023-03-27T08:11:23.543Z,5.46
2023-03-27T08:13:54.192Z,5.48
2023-03-27T08:16:21.544Z,5.50
2023-03-27T08:18:49.678Z,5.53
2023-03-27T08:21:16.552Z,5.61
2023-03-27T08:23:42.934Z,5.69
2023-03-27T08:26:09.614Z,5.76
2023-03-27T08:28:37.226Z,5.74
2023-03-27T08:31:12.674Z,5.77
2023-03-27T08:33:39.690Z,5.80
2023-03-27T08:36:08.118Z,5.90
2023-03-27T08:38:39.222Z,5.97
2023-03-27T08:41:06.762Z,5.98
2023-03-27T08:43:42.633Z,6.11
2023-03-27T08:46:19.942Z,6.28
2023-03-27T08:48:58.988Z,6.44
2023-03-27T08:51:57.748Z,6.62
2023-03-27T08:54:32.510Z,6.80
2023-03-27T08:56:59.642Z,6.95
2023-03-27T08:59:28.365Z,7.07
2023-03-27T09:01:57.501Z,7.20
2023-03-27T09:04:27.122Z,7.32
2023-03-27T09:07:31.516Z,7.39
2023-03-27T09:10:07.548Z,7.43
2023-03-27T09:12:50.631Z,7.40
2023-03-27T09:15:22.738Z,7.39
2023-03-27T09:17:55.070Z,7.33
2023-03-27T09:20:28.569Z,7.34
2023-03-27T09:23:05.513Z,7.30
2023-03-27T09:25:37.993Z,7.32
2023-03-27T09:28:15.737Z,7.31
2023-03-27T09:30:42.447Z,7.35
2023-03-27T09:33:11.878Z,7.34
2023-03-27T09:35:39.503Z,7.36
2023-03-27T09:38:24.132Z,7.31
2023-03-27T09:41:06.288Z,7.28
2023-03-27T09:43:51.233Z,7.27
2023-03-27T09:46:21.449Z,7.37
2023-03-27T09:49:12.655Z,7.32
2023-03-27T09:51:43.629Z,7.48
2023-03-27T09:54:14.518Z,7.54
2023-03-27T09:56:51.794Z,7.56
2023-03-27T09:59:26.873Z,7.60
2023-03-27T10:02:16.834Z,7.78
2023-03-27T10:05:00.735Z,7.89
2023-03-27T10:07:27.803Z,8.24
2023-03-27T10:10:13.868Z,8.60
2023-03-27T10:12:41.480Z,8.72
2023-03-27T10:15:36.945Z,8.49
2023-03-27T10:18:24.732Z,8.26
2023-03-27T10:20:53.499Z,7.68
2023-03-27T10:23:39.865Z,7.47
2023-03-27T10:26:09.426Z,7.30
2023-03-27T10:28:38.897Z,7.16
2023-03-27T10:31:11.070Z,7.04
2023-03-27T10:33:40.689Z,7.04
2023-03-27T10:36:10.027Z,7.22
2023-03-27T10:38:39.090Z,7.54
2023-03-27T10:41:13.347Z,7.77
2023-03-27T10:43:46.043Z,7.95
2023-03-27T10:46:16.904Z,8.35
2023-03-27T10:48:49.307Z,8.86
2023-03-27T10:51:46.124Z,9.35
2023-03-27T10:54:32.806Z,9.71
2023-03-27T10:57:10.038Z,10.07
2023-03-27T11:00:03.344Z,10.63
2023-03-27T11:02:40.146Z,10.55
2023-03-27T11:05:36.650Z,10.41
2023-03-27T11:08:13.132Z,10.25
2023-03-27T11:10:45.327Z,10.33
2023-03-27T11:13:32.419Z,10.10
2023-03-27T11:16:27.167Z,9.85
2023-03-27T11:19:04.904Z,9.54
2023-03-27T11:21:42.135Z,9.38
2023-03-27T11:24:22.587Z,9.38
2023-03-27T11:27:04.182Z,9.56
2023-03-27T11:29:36.934Z,9.85
2023-03-27T11:32:19.619Z,10.21
2023-03-27T11:34:57.588Z,10.48
2023-03-27T11:37:43.036Z,10.73
2023-03-27T11:40:17.038Z,11.03
2023-03-27T11:42:45.602Z,11.28
2023-03-27T11:45:21.013Z,11.56
2023-03-27T11:47:50.398Z,11.56
2023-03-27T11:50:26.034Z,11.19
2023-03-27T11:53:11.598Z,11.07
2023-03-27T11:55:49.168Z,10.79
2023-03-27T11:58:27.067Z,10.42
2023-03-27T12:01:26.977Z,10.02
2023-03-27T12:04:11.835Z,10.13
2023-03-27T12:07:12.237Z,10.29
2023-03-27T12:09:59.661Z,10.79
2023-03-27T12:13:00.720Z,11.20
2023-03-27T12:15:46.630Z,11.18
2023-03-27T12:18:45.272Z,11.39
2023-03-27T12:21:25.444Z,11.58
2023-03-27T12:24:04.543Z,11.81
2023-03-27T12:27:12.528Z,12.11
2023-03-27T12:29:53.588Z,12.36
2023-03-27T12:32:55.654Z,12.49
2023-03-27T12:35:26.978Z,12.14
2023-03-27T12:38:03.144Z,11.62
2023-03-27T12:40:41.861Z,10.99
2023-03-27T12:43:39.440Z,10.49
2023-03-27T12:46:14.485Z,10.84
2023-03-27T12:49:00.669Z,11.14
2023-03-27T12:51:53.572Z,11.18
2023-03-27T12:54:28.770Z,11.56
2023-03-27T12:57:22.142Z,11.99
2023-03-27T12:59:48.691Z,12.41
2023-03-27T13:02:15.826Z,12.57
2023-03-27T13:04:57.307Z,12.56
2023-03-27T13:07:30.139Z,12.38
2023-03-27T13:10:24.920Z,12.20
2023-03-27T13:13:28.808Z,11.86
2023-03-27T13:16:01.190Z,11.63
2023-03-27T13:18:51.725Z,11.40
2023-03-27T13:21:31.135Z,10.65
2023-03-27T13:24:18.300Z,10.14
2023-03-27T13:26:56.448Z,9.65
2023-03-27T13:29:31.080Z,9.21
2023-03-27T13:32:19.859Z,8.85
2023-03-27T13:35:04.845Z,8.56
2023-03-27T13:37:36.709Z,8.35
2023-03-27T13:40:40.504Z,8.12
2023-03-27T13:43:12.149Z,7.90
2023-03-27T13:45:48.706Z,7.78
2023-03-27T13:48:40.304Z,7.77
2023-03-27T13:51:37.860Z,8.00
2023-03-27T13:54:44.598Z,8.07
2023-03-27T13:57:46.939Z,8.63
2023-03-27T14:00:37.974Z,9.18
2023-03-27T14:03:14.963Z,9.68
2023-03-27T14:05:58.512Z,10.13
2023-03-27T14:08:43.187Z,10.61
2023-03-27T14:11:15.920Z,10.85
2023-03-27T14:14:16.477Z,10.72
2023-03-27T14:17:21.736Z,10.57
2023-03-27T14:20:27.468Z,10.54
2023-03-27T14:22:57.384Z,10.48
2023-03-27T14:25:30.382Z,10.59
2023-03-27T14:27:57.333Z,10.57
2023-03-27T14:30:30.308Z,10.50
2023-03-27T14:33:03.872Z,10.44
2023-03-27T14:35:39.580Z,10.33
2023-03-27T14:38:21.928Z,10.18
2023-03-27T14:40:50.325Z,10.06
2023-03-27T14:43:18.921Z,9.85
2023-03-27T14:45:46.278Z,9.63
2023-03-27T14:48:22.898Z,9.16
2023-03-27T14:50:54.049Z,8.46
2023-03-27T14:53:28.543Z,8.05
2023-03-27T14:55:56.291Z,7.64
2023-03-27T14:58:25.054Z,7.27
2023-03-27T15:00:58.163Z,7.07
2023-03-27T15:03:29.999Z,6.95
2023-03-27T15:06:05.790Z,7.04
2023-03-27T15:08:37.221Z,7.38
2023-03-27T15:11:10.990Z,7.91
2023-03-27T15:13:37.614Z,8.44
2023-03-27T15:16:06.645Z,8.89
2023-03-27T15:18:49.266Z,9.37
2023-03-27T15:21:21.674Z,9.94
2023-03-27T15:24:29.894Z,10.66
2023-03-27T15:26:56.766Z,11.37
2023-03-27T15:29:50.160Z,12.01
2023-03-27T15:32:22.044Z,12.41
2023-03-27T15:34:56.678Z,12.86
2023-03-27T15:37:25.474Z,13.28
2023-03-27T15:40:00.416Z,13.41
2023-03-27T15:42:43.734Z,13.80
2023-03-27T15:45:11.147Z,13.83
2023-03-27T15:47:37.746Z,13.88
2023-03-27T15:50:23.942Z,13.78
2023-03-27T15:52:52.598Z,13.88
2023-03-27T15:55:41.544Z,13.77
2023-03-27T15:58:32.987Z,13.34
2023-03-27T16:01:01.910Z,12.89
2023-03-27T16:03:32.584Z,12.77
2023-03-27T16:06:00.534Z,12.32
2023-03-27T16:08:37.739Z,11.99
2023-03-27T16:11:06.375Z,11.53
2023-03-27T16:13:42.465Z,11.08
2023-03-27T16:16:26.056Z,10.60
2023-03-27T16:18:53.212Z,10.27
2023-03-27T16:21:24.776Z,9.95
2023-03-27T16:23:51.516Z,9.64
2023-03-27T16:26:31.614Z,9.39
2023-03-27T16:29:01.984Z,9.08
2023-03-27T16:31:28.691Z,8.97
2023-03-27T16:33:55.275Z,8.92
2023-03-27T16:36:29.670Z,9.09
2023-03-27T16:38:56.621Z,9.37
2023-03-27T16:41:23.233Z,9.73
2023-03-27T16:43:49.793Z,10.06
2023-03-27T16:46:34.090Z,10.06
2023-03-27T16:49:00.832Z,9.88
2023-03-27T16:51:28.770Z,9.57
2023-03-27T16:53:55.794Z,9.14
2023-03-27T16:56:22.347Z,9.05
2023-03-27T16:58:48.908Z,8.84
2023-03-27T17:01:15.587Z,8.52
2023-03-27T17:03:42.310Z,7.87
2023-03-27T17:06:11.446Z,7.13
2023-03-27T17:08:38.087Z,6.43
2023-03-27T17:11:07.582Z,6.24
2023-03-27T17:13:34.242Z,6.33
2023-03-27T17:16:00.846Z,6.63
2023-03-27T17:18:27.658Z,6.97
2023-03-27T17:20:54.142Z,7.28
2023-03-27T17:23:20.940Z,7.57
2023-03-27T17:25:48.284Z,7.80
2023-03-27T17:28:14.990Z,7.98
2023-03-27T17:30:52.748Z,8.07
2023-03-27T17:33:28.504Z,8.08
2023-03-27T17:35:56.615Z,8.04
2023-03-27T17:38:24.077Z,7.92
2023-03-27T17:40:51.136Z,7.77
2023-03-27T17:43:17.672Z,7.66
2023-03-27T17:45:44.301Z,7.54
2023-03-27T17:48:11.380Z,7.45
2023-03-27T17:50:38.784Z,7.30
2023-03-27T17:53:05.327Z,7.17
2023-03-27T17:55:31.860Z,7.04
2023-03-27T17:58:08.840Z,6.91
2023-03-27T18:00:37.432Z,6.78
2023-03-27T18:03:04.505Z,6.63
2023-03-27T18:05:34.864Z,6.49
2023-03-27T18:08:01.222Z,6.37
2023-03-27T18:10:27.617Z,6.26
2023-03-27T18:12:54.042Z,6.14
2023-03-27T18:15:20.887Z,6.00
2023-03-27T18:17:47.422Z,5.86
2023-03-27T18:20:13.921Z,5.71
2023-03-27T18:22:40.562Z,5.59
2023-03-27T18:25:08.910Z,5.45
2023-03-27T18:27:44.694Z,5.35
2023-03-27T18:30:14.552Z,5.23
2023-03-27T18:32:43.086Z,5.12
2023-03-27T18:35:13.864Z,5.01
2023-03-27T18:37:41.761Z,4.91
2023-03-27T18:40:11.209Z,4.83
2023-03-27T18:42:40.172Z,4.71
2023-03-27T18:45:08.454Z,4.60
2023-03-27T18:47:36.172Z,4.49
2023-03-27T18:50:05.029Z,4.38
2023-03-27T18:52:31.663Z,4.30
2023-03-27T18:54:58.073Z,4.22
2023-03-27T18:57:24.851Z,4.15
2023-03-27T18:59:51.994Z,4.09
2023-03-27T19:02:18.433Z,4.04
2023-03-27T19:04:45.592Z,3.99
2023-03-27T19:07:11.981Z,3.92
2023-03-27T19:09:41.653Z,3.84
2023-03-27T19:12:09.249Z,3.79
2023-03-27T19:14:36.546Z,3.73
2023-03-27T19:17:04.017Z,3.69
2023-03-27T19:19:33.695Z,3.65
2023-03-27T19:22:00.138Z,3.59
2023-03-27T19:24:26.569Z,3.53
2023-03-27T19:26:53.078Z,3.50
2023-03-27T19:29:20.200Z,3.44
2023-03-27T19:31:46.590Z,3.41
2023-03-27T19:34:13.121Z,3.36
2023-03-27T19:36:39.558Z,3.32
2023-03-27T19:39:07.128Z,3.31
2023-03-27T19:41:33.607Z,3.27
2023-03-27T19:44:00.569Z,3.24
2023-03-27T19:48:54.797Z,3.17
2023-03-27T19:51:21.434Z,3.13
2023-03-27T19:53:47.891Z,3.08
2023-03-27T19:56:14.355Z,3.06
2023-03-27T19:58:40.782Z,3.05
2023-03-27T20:01:07.360Z,3.04
2023-03-27T20:03:35.319Z,3.03
2023-03-27T20:06:06.917Z,3.00
2023-03-27T20:08:38.029Z,2.98
2023-03-27T20:11:07.175Z,2.97
2023-03-27T20:13:42.319Z,2.97
2023-03-27T20:16:14.214Z,2.96
2023-03-27T20:18:41.820Z,2.93
2023-03-27T20:21:09.776Z,2.91
2023-03-27T20:23:37.621Z,2.88
2023-03-27T20:26:04.281Z,2.83
2023-03-27T20:28:30.842Z,2.80
2023-03-27T20:31:03.232Z,2.80
2023-03-27T20:33:29.733Z,2.78
2023-03-27T20:35:56.202Z,2.76
2023-03-27T20:38:23.224Z,2.74
2023-03-27T20:40:53.890Z,2.73
2023-03-27T20:43:23.066Z,2.73
2023-03-27T20:45:58.766Z,2.72
2023-03-27T20:48:26.721Z,2.66
2023-03-27T20:50:53.284Z,2.63
2023-03-27T20:53:30.344Z,2.64
2023-03-27T20:56:06.524Z,2.59
2023-03-27T20:58:35.017Z,2.59
2023-03-27T21:01:08.963Z,2.55
2023-03-27T21:03:38.482Z,2.53
2023-03-27T21:06:10.442Z,2.49
2023-03-27T21:08:37.584Z,2.43
2023-03-27T21:11:04.629Z,2.41
2023-03-27T21:13:31.370Z,2.39
2023-03-27T21:15:58.559Z,2.37
2023-03-27T21:18:25.798Z,2.35
2023-03-27T21:20:52.930Z,2.34
2023-03-27T21:23:19.889Z,2.32
2023-03-27T21:25:46.305Z,2.31
2023-03-27T21:28:13.136Z,2.28
2023-03-27T21:30:46.358Z,2.28
2023-03-27T21:33:15.889Z,2.27
2023-03-27T21:35:45.665Z,2.27
2023-03-27T21:38:13.248Z,2.24
2023-03-27T21:40:40.269Z,2.22
2023-03-27T21:43:08.308Z,2.19
2023-03-27T21:45:36.008Z,2.21
2023-03-27T21:48:02.772Z,2.19
2023-03-27T21:50:29.485Z,2.18
2023-03-27T21:52:55.937Z,2.17
2023-03-27T21:55:22.574Z,2.18
2023-03-27T21:57:49.085Z,2.18
2023-03-27T22:00:15.902Z,2.20
2023-03-27T22:02:42.830Z,2.17
2023-03-27T22:05:09.683Z,2.18
2023-03-27T22:07:36.619Z,2.13
2023-03-27T22:10:06.128Z,2.11
2023-03-27T22:12:36.641Z,2.11
2023-03-27T22:15:05.832Z,2.11
2023-03-27T22:17:32.498Z,2.11
2023-03-27T22:19:59.191Z,2.10
2023-03-27T22:22:25.970Z,2.08
2023-03-27T22:24:52.393Z,2.08
2023-03-27T22:27:18.849Z,2.07
2023-03-27T22:29:45.228Z,2.07
2023-03-27T22:32:11.642Z,2.06
2023-03-27T22:34:38.024Z,2.01
2023-03-27T22:37:04.444Z,2.02
2023-03-27T22:39:31.419Z,1.98
2023-03-27T22:41:58.081Z,1.98
2023-03-27T22:44:24.634Z,1.96
2023-03-27T22:46:52.910Z,1.92
2023-03-27T22:49:19.589Z,1.88
2023-03-27T22:51:46.059Z,1.86
2023-03-27T22:54:12.495Z,1.83
2023-03-27T22:56:38.955Z,1.81
2023-03-27T22:59:06.113Z,1.79
2023-03-27T23:01:32.928Z,1.75
2023-03-27T23:03:59.488Z,1.73
2023-03-27T23:06:26.293Z,1.71
2023-03-27T23:08:52.902Z,1.71
2023-03-27T23:11:20.269Z,1.71
2023-03-27T23:13:47.167Z,1.69
2023-03-27T23:16:13.754Z,1.69
2023-03-27T23:18:40.616Z,1.69
2023-03-27T23:21:10.053Z,1.72
2023-03-27T23:23:38.608Z,1.72
2023-03-27T23:26:06.594Z,1.72
2023-03-27T23:28:35.645Z,1.72
2023-03-27T23:31:05.350Z,1.73
2023-03-27T23:33:41.416Z,1.74
2023-03-27T23:36:22.946Z,1.75
2023-03-27T23:38:51.491Z,1.74
2023-03-27T23:41:18.314Z,1.73
2023-03-27T23:43:45.387Z,1.72
2023-03-27T23:46:12.628Z,1.70
2023-03-27T23:48:41.232Z,1.68
2023-03-27T23:51:08.681Z,1.66
2023-03-27T23:53:36.226Z,1.65
2023-03-27T23:56:03.173Z,1.63
2023-03-27T23:58:32.368Z,1.63
